createdAt,value
2023-11-15T00:00:15.006Z,85.71
2023-11-15T00:01:15.001Z,86.10
2023-11-15T00:02:14.975Z,86.68
2023-11-15T00:03:15.099Z,86.31
2023-11-15T00:04:14.994Z,84.54
2023-11-15T00:05:14.981Z,86.20
2023-11-15T00:06:15.064Z,85.50
2023-11-15T00:07:14.939Z,85.50
2023-11-15T00:08:14.938Z,86.16
2023-11-15T00:09:14.918Z,85.16
2023-11-15T00:10:15.063Z,84.65
2023-11-15T00:11:14.896Z,86.19
2023-11-15T00:12:14.885Z,84.79
2023-11-15T00:13:14.890Z,84.85
2023-11-15T00:14:14.879Z,84.53
2023-11-15T00:15:14.864Z,85.72
2023-11-15T00:16:14.887Z,84.61
2023-11-15T00:17:14.842Z,84.11
2023-11-15T00:18:15.135Z,84.64
2023-11-15T00:19:14.849Z,83.18
2023-11-15T00:20:14.945Z,83.36
2023-11-15T00:21:14.804Z,83.38
2023-11-15T00:22:14.795Z,83.42
2023-11-15T00:23:14.797Z,83.68
2023-11-15T00:24:14.794Z,83.45
2023-11-15T00:25:17.314Z,83.60
2023-11-15T00:26:14.752Z,83.68
2023-11-15T00:27:14.761Z,83.74
2023-11-15T00:28:14.758Z,83.80
2023-11-15T00:29:24.132Z,83.68
2023-11-15T00:30:14.728Z,83.76
2023-11-15T00:31:14.716Z,84.24
2023-11-15T00:32:14.702Z,84.13
2023-11-15T00:33:14.792Z,84.66
2023-11-15T00:34:14.733Z,84.60
2023-11-15T00:35:14.775Z,83.67
2023-11-15T00:36:14.696Z,82.63
2023-11-15T00:37:14.681Z,82.36
2023-11-15T00:38:14.656Z,82.18
2023-11-15T00:39:14.653Z,83.16
2023-11-15T00:40:14.653Z,81.67
2023-11-15T00:41:14.634Z,81.74
2023-11-15T00:42:14.622Z,80.48
2023-11-15T00:43:14.606Z,81.37
2023-11-15T00:44:14.598Z,81.36
2023-11-15T00:45:14.593Z,80.44
2023-11-15T00:46:14.623Z,81.06
2023-11-15T00:47:14.573Z,80.88
2023-11-15T00:48:14.653Z,81.36
2023-11-15T00:49:14.557Z,79.41
2023-11-15T00:50:19.657Z,79.96
2023-11-15T00:51:14.538Z,80.10
2023-11-15T00:52:14.514Z,80.23
2023-11-15T00:53:14.515Z,80.60
2023-11-15T00:54:14.502Z,80.51
2023-11-15T00:55:14.496Z,79.83
2023-11-15T00:56:14.485Z,80.26
2023-11-15T00:57:14.481Z,78.41
2023-11-15T00:58:14.460Z,78.71
2023-11-15T00:59:14.457Z,79.14
2023-11-15T01:00:14.442Z,79.04
2023-11-15T01:01:14.446Z,78.49
2023-11-15T01:02:14.509Z,77.96
2023-11-15T01:03:14.517Z,77.56
2023-11-15T01:04:14.558Z,78.16
2023-11-15T01:05:14.417Z,78.27
2023-11-15T01:06:14.398Z,78.28
2023-11-15T01:07:14.385Z,77.84
2023-11-15T01:08:14.377Z,77.87
2023-11-15T01:09:14.365Z,77.89
2023-11-15T01:10:14.391Z,78.04
2023-11-15T01:11:14.346Z,77.40
2023-11-15T01:12:14.341Z,76.88
2023-11-15T01:13:14.329Z,77.07
2023-11-15T01:14:14.332Z,76.41
2023-11-15T01:15:14.323Z,76.65
2023-11-15T01:16:18.372Z,76.96
2023-11-15T01:17:14.298Z,77.00
2023-11-15T01:18:14.316Z,77.04
2023-11-15T01:19:14.286Z,77.25
2023-11-15T01:20:14.264Z,76.84
2023-11-15T01:21:14.267Z,78.25
2023-11-15T01:22:14.250Z,76.32
2023-11-15T01:23:14.243Z,76.96
2023-11-15T01:24:14.229Z,76.97
2023-11-15T01:25:14.221Z,75.19
2023-11-15T01:26:14.206Z,75.71
2023-11-15T01:27:14.202Z,76.41
2023-11-15T01:28:14.197Z,75.65
2023-11-15T01:29:14.182Z,76.01
2023-11-15T01:30:14.172Z,75.72
2023-11-15T01:31:14.161Z,75.67
2023-11-15T01:32:14.160Z,75.94
2023-11-15T01:33:14.211Z,76.60
2023-11-15T01:34:14.172Z,75.65
2023-11-15T01:35:14.141Z,75.24
2023-11-15T01:36:14.147Z,74.98
2023-11-15T01:37:14.127Z,75.03
2023-11-15T01:38:14.092Z,74.84
2023-11-15T01:39:14.109Z,75.25
2023-11-15T01:40:14.082Z,74.66
2023-11-15T01:41:14.069Z,74.52
2023-11-15T01:42:14.117Z,74.94
2023-11-15T01:43:14.063Z,74.22
2023-11-15T01:44:14.039Z,75.71
2023-11-15T01:45:14.050Z,74.98
2023-11-15T01:46:14.070Z,73.81
2023-11-15T01:47:14.020Z,73.93
2023-11-15T01:48:14.041Z,74.49
2023-11-15T01:49:14.005Z,74.66
2023-11-15T01:50:13.978Z,74.65
2023-11-15T01:51:13.979Z,74.60
2023-11-15T01:52:13.962Z,73.35
2023-11-15T01:53:13.971Z,74.58
2023-11-15T01:54:13.948Z,72.44
2023-11-15T01:55:13.943Z,73.06
2023-11-15T01:56:13.928Z,72.54
2023-11-15T01:57:13.928Z,73.32
2023-11-15T01:58:19.281Z,72.68
2023-11-15T01:59:13.906Z,72.80
2023-11-15T02:00:13.901Z,73.06
2023-11-15T02:01:13.925Z,73.35
2023-11-15T02:02:13.883Z,73.47
2023-11-15T02:03:13.952Z,73.10
2023-11-15T02:04:13.909Z,72.83
2023-11-15T02:05:13.862Z,72.78
2023-11-15T02:06:13.851Z,71.94
2023-11-15T02:07:13.844Z,72.10
2023-11-15T02:08:13.831Z,70.77
2023-11-15T02:09:13.828Z,71.69
2023-11-15T02:10:13.930Z,71.23
2023-11-15T02:11:13.812Z,71.20
2023-11-15T02:12:13.779Z,71.84
2023-11-15T02:13:13.785Z,71.68
2023-11-15T02:14:13.763Z,70.91
2023-11-15T02:15:13.766Z,71.15
2023-11-15T02:16:13.839Z,70.32
2023-11-15T02:17:13.746Z,70.27
2023-11-15T02:18:13.842Z,70.69
2023-11-15T02:19:13.723Z,69.76
2023-11-15T02:20:13.712Z,70.30
2023-11-15T02:21:13.712Z,70.30
2023-11-15T02:22:13.689Z,70.26
2023-11-15T02:23:13.691Z,70.00
2023-11-15T02:24:13.688Z,69.76
2023-11-15T02:25:13.674Z,70.85
2023-11-15T02:26:13.730Z,70.52
2023-11-15T02:27:13.651Z,69.78
2023-11-15T02:28:13.646Z,70.30
2023-11-15T02:29:13.635Z,69.41
2023-11-15T02:30:13.630Z,70.24
2023-11-15T02:31:13.714Z,69.20
2023-11-15T02:32:13.605Z,70.08
2023-11-15T02:33:13.662Z,68.96
2023-11-15T02:34:13.582Z,69.63
2023-11-15T02:35:34.724Z,68.97
2023-11-15T02:36:13.587Z,69.24
2023-11-15T02:37:13.569Z,70.02
2023-11-15T02:38:13.553Z,70.92
2023-11-15T02:39:13.549Z,71.61
2023-11-15T02:40:13.536Z,72.75
2023-11-15T02:41:13.550Z,72.99
2023-11-15T02:42:13.515Z,72.09
2023-11-15T02:43:13.510Z,72.01
2023-11-15T02:44:13.494Z,71.53
2023-11-15T02:45:13.483Z,71.07
2023-11-15T02:46:13.513Z,70.16
2023-11-15T02:47:13.468Z,70.23
2023-11-15T02:48:13.567Z,70.17
2023-11-15T02:49:13.481Z,70.12
2023-11-15T02:50:13.441Z,70.22
2023-11-15T02:51:13.427Z,69.93
2023-11-15T02:52:13.428Z,69.82
2023-11-15T02:53:13.405Z,68.63
2023-11-15T02:54:13.409Z,69.09
2023-11-15T02:55:13.387Z,70.06
2023-11-15T02:56:13.385Z,69.51
2023-11-15T02:57:13.377Z,68.75
2023-11-15T02:58:13.367Z,68.29
2023-11-15T02:59:13.344Z,68.59
2023-11-15T03:00:13.370Z,68.23
2023-11-15T03:01:13.353Z,68.16
2023-11-15T03:02:16.722Z,67.54
2023-11-15T03:03:13.393Z,67.66
2023-11-15T03:04:13.389Z,67.88
2023-11-15T03:05:13.320Z,67.75
2023-11-15T03:06:13.294Z,66.44
2023-11-15T03:07:13.296Z,66.09
2023-11-15T03:08:13.273Z,67.23
2023-11-15T03:09:13.266Z,67.17
2023-11-15T03:10:13.249Z,65.93
2023-11-15T03:11:13.246Z,64.81
2023-11-15T03:12:13.237Z,64.99
2023-11-15T03:13:13.233Z,64.52
2023-11-15T03:14:13.233Z,64.75
2023-11-15T03:15:13.241Z,64.69
2023-11-15T03:16:13.293Z,63.58
2023-11-15T03:17:13.185Z,63.25
2023-11-15T03:18:19.630Z,59.57
2023-11-15T03:19:13.179Z,59.76
2023-11-15T03:20:13.189Z,60.18
2023-11-15T03:21:13.166Z,61.17
2023-11-15T03:22:13.150Z,60.06
2023-11-15T03:23:13.132Z,59.80
2023-11-15T03:24:13.131Z,62.24
2023-11-15T03:25:13.111Z,60.46
2023-11-15T03:26:13.105Z,61.41
2023-11-15T03:27:13.096Z,59.24
2023-11-15T03:28:13.087Z,59.98
2023-11-15T03:29:13.091Z,57.89
2023-11-15T03:30:13.184Z,56.22
2023-11-15T03:31:13.074Z,58.67
2023-11-15T03:32:13.151Z,57.28
2023-11-15T03:33:13.146Z,58.75
2023-11-15T03:34:14.373Z,59.85
2023-11-15T03:35:13.022Z,58.19
2023-11-15T03:36:13.014Z,58.75
2023-11-15T03:37:13.020Z,58.99
2023-11-15T03:38:12.997Z,59.89
2023-11-15T03:39:13.084Z,59.01
2023-11-15T03:40:12.988Z,59.94
2023-11-15T03:41:12.978Z,56.85
2023-11-15T03:42:12.961Z,58.74
2023-11-15T03:43:12.951Z,56.97
2023-11-15T03:44:12.965Z,54.93
2023-11-15T03:45:12.943Z,55.65
2023-11-15T03:46:12.951Z,57.31
2023-11-15T03:47:12.907Z,57.43
2023-11-15T03:48:12.929Z,58.00
2023-11-15T03:49:12.889Z,55.83
2023-11-15T03:50:12.935Z,56.23
2023-11-15T03:51:12.895Z,57.74
2023-11-15T03:52:12.885Z,55.35
2023-11-15T03:53:12.855Z,58.93
2023-11-15T03:54:12.858Z,57.88
2023-11-15T03:55:12.851Z,58.58
2023-11-15T03:56:12.845Z,57.68
2023-11-15T03:57:12.852Z,54.48
2023-11-15T03:58:12.818Z,55.76
2023-11-15T03:59:12.811Z,57.36
2023-11-15T04:00:12.803Z,57.97
2023-11-15T04:01:12.794Z,56.71
2023-11-15T04:02:12.812Z,57.27
2023-11-15T04:03:13.088Z,55.32
2023-11-15T04:04:12.988Z,54.85
2023-11-15T04:05:12.791Z,54.05
2023-11-15T04:06:19.103Z,54.50
2023-11-15T04:07:12.739Z,54.66
2023-11-15T04:08:12.737Z,54.79
2023-11-15T04:09:12.714Z,55.43
2023-11-15T04:10:12.715Z,57.09
2023-11-15T04:11:12.696Z,56.88
2023-11-15T04:12:12.702Z,55.67
2023-11-15T04:13:12.676Z,56.26
2023-11-15T04:14:12.713Z,58.87
2023-11-15T04:15:12.670Z,57.96
2023-11-15T04:16:12.706Z,56.50
2023-11-15T04:17:12.684Z,56.30
2023-11-15T04:18:12.662Z,54.12
2023-11-15T04:19:12.633Z,54.01
2023-11-15T04:20:12.634Z,56.42
2023-11-15T04:21:12.609Z,55.64
2023-11-15T04:22:17.100Z,52.00
2023-11-15T04:23:12.594Z,52.21
2023-11-15T04:24:12.588Z,52.68
2023-11-15T04:25:12.578Z,53.42
2023-11-15T04:26:12.584Z,55.01
2023-11-15T04:27:12.561Z,55.83
2023-11-15T04:28:12.571Z,56.00
2023-11-15T04:29:12.540Z,57.34
2023-11-15T04:30:12.546Z,55.60
2023-11-15T04:31:12.623Z,54.79
2023-11-15T04:32:12.518Z,54.99
2023-11-15T04:33:13.748Z,55.91
2023-11-15T04:34:12.506Z,53.48
2023-11-15T04:35:12.497Z,55.46
2023-11-15T04:36:12.487Z,54.66
2023-11-15T04:37:12.466Z,56.87
2023-11-15T04:38:12.471Z,53.50
2023-11-15T04:39:12.544Z,50.13
2023-11-15T04:40:12.449Z,56.25
2023-11-15T04:41:12.440Z,54.54
2023-11-15T04:42:12.434Z,54.91
2023-11-15T04:43:12.429Z,52.18
2023-11-15T04:44:12.419Z,56.81
2023-11-15T04:45:12.446Z,54.79
2023-11-15T04:46:12.457Z,55.25
2023-11-15T04:47:12.376Z,55.70
2023-11-15T04:48:12.453Z,51.59
2023-11-15T04:49:12.357Z,53.48
2023-11-15T04:50:12.354Z,53.87
2023-11-15T04:51:12.339Z,54.73
2023-11-15T04:52:12.352Z,55.14
2023-11-15T04:53:12.327Z,57.19
2023-11-15T04:54:12.336Z,56.85
2023-11-15T04:55:12.306Z,55.77
2023-11-15T04:56:12.360Z,52.46
2023-11-15T04:57:12.293Z,52.01
2023-11-15T04:58:18.659Z,51.96
2023-11-15T04:59:12.272Z,52.13
2023-11-15T05:00:12.344Z,52.21
2023-11-15T05:01:12.263Z,52.95
2023-11-15T05:02:12.257Z,54.07
2023-11-15T05:03:12.326Z,53.27
2023-11-15T05:04:12.305Z,55.33
2023-11-15T05:05:12.273Z,52.74
2023-11-15T05:06:12.223Z,50.43
2023-11-15T05:07:12.204Z,54.55
2023-11-15T05:08:12.196Z,51.23
2023-11-15T05:09:12.183Z,52.52
2023-11-15T05:10:12.195Z,54.57
2023-11-15T05:11:12.172Z,54.86
2023-11-15T05:12:12.154Z,53.08
2023-11-15T05:13:12.145Z,54.40
2023-11-15T05:14:12.135Z,51.44
2023-11-15T05:15:12.138Z,52.85
2023-11-15T05:16:12.135Z,54.35
2023-11-15T05:17:12.105Z,51.85
2023-11-15T05:18:12.178Z,54.63
2023-11-15T05:19:12.088Z,55.34
2023-11-15T05:20:12.097Z,53.37
2023-11-15T05:21:12.072Z,53.93
2023-11-15T05:22:12.075Z,51.53
2023-11-15T05:23:12.059Z,54.69
2023-11-15T05:24:12.336Z,51.43
2023-11-15T05:25:12.039Z,54.07
2023-11-15T05:26:12.032Z,52.97
2023-11-15T05:27:12.031Z,54.05
2023-11-15T05:28:12.021Z,53.19
2023-11-15T05:29:12.013Z,51.32
2023-11-15T05:30:11.998Z,53.23
2023-11-15T05:31:11.985Z,51.02
2023-11-15T05:32:11.975Z,53.73
2023-11-15T05:33:12.031Z,55.97
2023-11-15T05:34:11.965Z,52.25
2023-11-15T05:35:11.961Z,55.53
2023-11-15T05:36:11.957Z,55.24
2023-11-15T05:37:11.935Z,53.80
2023-11-15T05:38:11.953Z,53.03
2023-11-15T05:39:11.908Z,55.18
2023-11-15T05:40:13.265Z,53.99
2023-11-15T05:41:11.890Z,54.31
2023-11-15T05:42:11.892Z,52.47
2023-11-15T05:43:11.886Z,53.41
2023-11-15T05:44:11.881Z,51.02
2023-11-15T05:45:12.045Z,50.40
2023-11-15T05:46:11.883Z,52.70
2023-11-15T05:47:11.835Z,54.37
2023-11-15T05:48:11.885Z,53.43
2023-11-15T05:49:11.836Z,52.02
2023-11-15T05:50:11.826Z,53.02
2023-11-15T05:51:11.807Z,51.97
2023-11-15T05:52:11.801Z,53.73
2023-11-15T05:53:11.809Z,51.90
2023-11-15T05:54:11.786Z,51.45
2023-11-15T05:55:11.782Z,54.95
2023-11-15T05:56:17.419Z,51.69
2023-11-15T05:57:11.758Z,51.89
2023-11-15T05:58:11.738Z,52.02
2023-11-15T05:59:11.733Z,52.13
2023-11-15T06:00:11.748Z,53.20
2023-11-15T06:01:11.715Z,53.20
2023-11-15T06:02:11.723Z,54.83
2023-11-15T06:03:11.812Z,51.74
2023-11-15T06:04:11.779Z,56.64
2023-11-15T06:05:11.675Z,52.04
2023-11-15T06:06:11.759Z,50.00
2023-11-15T06:07:11.663Z,51.19
2023-11-15T06:08:11.673Z,52.75
2023-11-15T06:09:11.666Z,54.23
2023-11-15T06:10:11.659Z,53.01
2023-11-15T06:11:11.624Z,55.78
2023-11-15T06:12:12.971Z,51.20
2023-11-15T06:13:11.618Z,53.25
2023-11-15T06:14:11.611Z,56.01
2023-11-15T06:15:11.746Z,52.65
2023-11-15T06:16:11.589Z,52.27
2023-11-15T06:17:11.624Z,54.23
2023-11-15T06:18:11.666Z,53.90
2023-11-15T06:19:11.559Z,53.06
2023-11-15T06:20:11.679Z,51.41
2023-11-15T06:21:11.540Z,52.65
2023-11-15T06:22:11.571Z,51.89
2023-11-15T06:23:11.521Z,53.67
2023-11-15T06:24:11.546Z,54.76
2023-11-15T06:25:11.498Z,54.50
2023-11-15T06:26:11.516Z,54.01
2023-11-15T06:27:11.493Z,52.71
2023-11-15T06:28:11.484Z,52.15
2023-11-15T06:29:11.460Z,53.75
2023-11-15T06:30:11.545Z,54.51
2023-11-15T06:31:11.443Z,55.19
2023-11-15T06:32:11.441Z,58.00
2023-11-15T06:33:16.197Z,54.20
2023-11-15T06:34:11.524Z,54.33
2023-11-15T06:35:11.399Z,54.76
2023-11-15T06:36:11.427Z,55.49
2023-11-15T06:37:11.384Z,57.80
2023-11-15T06:38:11.395Z,60.85
2023-11-15T06:39:11.373Z,57.68
2023-11-15T06:40:11.379Z,60.16
2023-11-15T06:41:11.966Z,60.19
2023-11-15T06:42:13.585Z,60.71
2023-11-15T06:43:11.482Z,62.98
2023-11-15T06:44:11.527Z,61.19
2023-11-15T06:45:11.499Z,60.67
2023-11-15T06:46:11.481Z,59.01
2023-11-15T06:47:11.483Z,57.23
2023-11-15T06:48:11.479Z,52.75
2023-11-15T06:49:11.441Z,53.48
2023-11-15T06:50:11.426Z,52.45
2023-11-15T06:51:11.514Z,51.33
2023-11-15T06:52:11.408Z,48.92
2023-11-15T06:53:11.388Z,51.72
2023-11-15T06:54:11.464Z,50.00
2023-11-15T06:55:11.434Z,50.65
2023-11-15T06:56:11.365Z,50.00
2023-11-15T06:57:11.396Z,50.00
2023-11-15T06:58:11.358Z,50.53
2023-11-15T06:59:11.352Z,51.15
2023-11-15T07:00:11.440Z,52.85
2023-11-15T07:01:11.388Z,49.60
2023-11-15T07:02:11.332Z,50.00
2023-11-15T07:03:11.363Z,52.06
2023-11-15T07:04:11.416Z,54.45
2023-11-15T07:05:11.320Z,56.56
2023-11-15T07:06:11.276Z,58.03
2023-11-15T07:07:11.269Z,58.69
2023-11-15T07:08:11.307Z,57.40
2023-11-15T07:09:11.303Z,56.13
2023-11-15T07:10:11.251Z,56.41
2023-11-15T07:11:11.237Z,57.62
2023-11-15T07:12:11.295Z,58.08
2023-11-15T07:13:11.229Z,59.73
2023-11-15T07:14:11.209Z,59.24
2023-11-15T07:15:11.221Z,60.22
2023-11-15T07:16:11.208Z,60.86
2023-11-15T07:17:11.191Z,59.54
2023-11-15T07:18:11.225Z,59.57
2023-11-15T07:19:11.183Z,60.52
2023-11-15T07:20:11.226Z,62.37
2023-11-15T07:21:11.187Z,64.69
2023-11-15T07:22:11.133Z,64.57
2023-11-15T07:23:11.136Z,65.11
2023-11-15T07:24:11.202Z,65.39
2023-11-15T07:25:11.118Z,67.85
2023-11-15T07:26:11.099Z,70.51
2023-11-15T07:27:11.196Z,71.40
2023-11-15T07:28:11.097Z,72.91
2023-11-15T07:29:11.092Z,75.01
2023-11-15T07:30:11.098Z,78.95
2023-11-15T07:31:11.055Z,79.65
2023-11-15T07:32:11.034Z,79.91
2023-11-15T07:33:11.114Z,81.82
2023-11-15T07:34:11.023Z,85.77
2023-11-15T07:35:11.016Z,87.41
2023-11-15T07:36:11.048Z,88.34
2023-11-15T07:37:11.009Z,89.74
2023-11-15T07:38:11.007Z,92.51
2023-11-15T07:39:10.996Z,95.61
2023-11-15T07:40:11.040Z,96.75
2023-11-15T07:41:10.976Z,99.98
2023-11-15T07:42:11.028Z,100.96
2023-11-15T07:43:10.954Z,103.74
2023-11-15T07:44:10.933Z,105.78
2023-11-15T07:45:11.050Z,105.62
2023-11-15T07:46:10.992Z,105.85
2023-11-15T07:47:10.921Z,110.90
2023-11-15T07:48:10.967Z,112.59
2023-11-15T07:49:10.902Z,116.26
2023-11-15T07:50:10.875Z,113.85
2023-11-15T07:51:10.891Z,114.61
2023-11-15T07:52:10.868Z,118.50
2023-11-15T07:53:10.867Z,121.98
2023-11-15T07:54:10.870Z,122.14
2023-11-15T07:55:10.851Z,123.00
2023-11-15T07:56:10.823Z,128.50
2023-11-15T07:57:10.853Z,127.96
2023-11-15T07:58:10.818Z,131.43
2023-11-15T07:59:10.803Z,132.85
2023-11-15T08:00:10.828Z,137.28
2023-11-15T08:01:10.786Z,139.98
2023-11-15T08:02:10.778Z,144.09
2023-11-15T08:03:10.857Z,148.56
2023-11-15T08:04:10.951Z,150.53
2023-11-15T08:05:10.758Z,152.28
2023-11-15T08:06:10.739Z,153.77
2023-11-15T08:07:10.750Z,157.06
2023-11-15T08:08:10.739Z,157.99
2023-11-15T08:09:10.722Z,158.28
2023-11-15T08:10:10.720Z,160.51
2023-11-15T08:11:10.705Z,157.63
2023-11-15T08:12:10.704Z,162.57
2023-11-15T08:13:10.701Z,164.55
2023-11-15T08:14:10.670Z,169.02
2023-11-15T08:15:10.755Z,171.10
2023-11-15T08:16:10.655Z,174.05
2023-11-15T08:17:10.643Z,175.43
2023-11-15T08:18:10.767Z,178.23
2023-11-15T08:19:10.696Z,180.09
2023-11-15T08:20:10.735Z,182.97
2023-11-15T08:21:10.691Z,183.30
2023-11-15T08:22:10.617Z,184.95
2023-11-15T08:23:10.604Z,188.72
2023-11-15T08:24:10.641Z,200.05
2023-11-15T08:25:10.706Z,197.69
2023-11-15T08:26:10.561Z,199.67
2023-11-15T08:27:10.655Z,200.15
2023-11-15T08:28:10.543Z,200.00
2023-11-15T08:29:10.545Z,199.97
2023-11-15T08:30:10.542Z,198.79
2023-11-15T08:31:10.525Z,198.91
2023-11-15T08:32:10.518Z,198.68
2023-11-15T08:33:10.662Z,198.71
2023-11-15T08:34:10.549Z,198.39
2023-11-15T08:35:10.505Z,199.76
2023-11-15T08:36:10.515Z,199.89
2023-11-15T08:37:10.470Z,199.41
2023-11-15T08:38:10.468Z,199.97
2023-11-15T08:39:10.498Z,197.27
2023-11-15T08:40:19.922Z,198.62
2023-11-15T08:41:11.483Z,198.73
2023-11-15T08:42:10.469Z,199.13
2023-11-15T08:43:10.429Z,200.26
2023-11-15T08:44:10.413Z,201.64
2023-11-15T08:45:10.503Z,203.48
2023-11-15T08:46:10.447Z,199.43
2023-11-15T08:47:10.392Z,200.00
2023-11-15T08:48:10.497Z,197.35
2023-11-15T08:49:10.423Z,183.61
2023-11-15T08:50:10.408Z,170.64
2023-11-15T08:51:10.386Z,164.79
2023-11-15T08:52:10.345Z,163.61
2023-11-15T08:53:10.328Z,156.99
2023-11-15T08:54:10.400Z,153.72
2023-11-15T08:55:10.311Z,150.41
2023-11-15T08:56:10.299Z,146.02
2023-11-15T08:57:10.318Z,141.45
2023-11-15T08:58:10.284Z,136.75
2023-11-15T08:59:10.288Z,132.21
2023-11-15T09:00:10.295Z,128.70
2023-11-15T09:01:10.350Z,124.23
2023-11-15T09:02:10.263Z,120.35
2023-11-15T09:03:10.350Z,116.94
2023-11-15T09:04:10.400Z,112.44
2023-11-15T09:05:10.228Z,108.97
2023-11-15T09:06:10.272Z,105.27
2023-11-15T09:07:10.225Z,101.46
2023-11-15T09:08:10.217Z,98.33
2023-11-15T09:09:10.227Z,93.14
2023-11-15T09:10:10.429Z,93.50
2023-11-15T09:11:10.163Z,90.38
2023-11-15T09:12:10.207Z,88.67
2023-11-15T09:13:10.264Z,84.55
2023-11-15T09:14:10.131Z,82.48
2023-11-15T09:15:10.265Z,82.51
2023-11-15T09:16:12.349Z,79.00
2023-11-15T09:17:10.162Z,77.26
2023-11-15T09:18:10.165Z,75.98
2023-11-15T09:19:10.097Z,74.13
2023-11-15T09:20:10.128Z,70.64
2023-11-15T09:21:10.126Z,70.44
2023-11-15T09:22:10.081Z,69.42
2023-11-15T09:23:18.513Z,69.90
2023-11-15T09:24:11.098Z,69.99
2023-11-15T09:25:11.498Z,69.98
2023-11-15T09:26:10.037Z,70.26
2023-11-15T09:27:10.090Z,70.37
2023-11-15T09:28:10.013Z,70.82
2023-11-15T09:29:10.017Z,69.87
2023-11-15T09:30:10.120Z,71.42
2023-11-15T09:31:10.001Z,71.49
2023-11-15T09:32:09.974Z,72.38
2023-11-15T09:33:10.072Z,73.71
2023-11-15T09:34:10.033Z,76.68
2023-11-15T09:35:09.960Z,76.65
2023-11-15T09:36:09.991Z,79.16
2023-11-15T09:37:09.944Z,79.29
2023-11-15T09:38:09.947Z,81.27
2023-11-15T09:39:09.975Z,82.23
2023-11-15T09:40:10.596Z,82.33
2023-11-15T09:41:09.906Z,84.79
2023-11-15T09:42:09.993Z,85.31
2023-11-15T09:43:09.914Z,87.39
2023-11-15T09:44:09.926Z,90.28
2023-11-15T09:45:09.864Z,90.20
2023-11-15T09:46:09.979Z,82.94
2023-11-15T09:47:09.859Z,80.38
2023-11-15T09:48:09.898Z,78.68
2023-11-15T09:49:09.971Z,76.87
2023-11-15T09:50:09.830Z,73.63
2023-11-15T09:51:09.867Z,70.76
2023-11-15T09:52:09.804Z,68.46
2023-11-15T09:53:09.804Z,64.23
2023-11-15T09:54:16.428Z,62.63
2023-11-15T09:55:10.806Z,61.51
2023-11-15T09:56:09.764Z,58.51
2023-11-15T09:57:09.810Z,57.41
2023-11-15T09:58:09.744Z,51.38
2023-11-15T10:00:16.222Z,53.15
2023-11-15T10:01:10.761Z,51.31
2023-11-15T10:02:09.736Z,50.94
2023-11-15T10:03:10.024Z,50.82
2023-11-15T10:04:09.698Z,49.83
2023-11-15T10:05:11.037Z,48.02
2023-11-15T10:06:09.720Z,49.27
2023-11-15T10:07:09.700Z,50.81
2023-11-15T10:08:09.654Z,51.85
2023-11-15T10:09:09.677Z,52.94
2023-11-15T10:10:09.658Z,51.81
2023-11-15T10:11:09.674Z,49.72
2023-11-15T10:12:10.028Z,52.84
2023-11-15T10:13:09.628Z,51.05
2023-11-15T10:14:09.668Z,50.29
2023-11-15T10:15:09.635Z,50.71
2023-11-15T10:16:09.670Z,51.75
2023-11-15T10:17:09.645Z,50.80
2023-11-15T10:18:09.654Z,51.44
2023-11-15T10:19:10.160Z,50.57
2023-11-15T10:20:09.566Z,51.63
2023-11-15T10:21:09.685Z,53.29
2023-11-15T10:22:09.532Z,53.69
2023-11-15T10:23:09.544Z,51.76
2023-11-15T10:24:09.587Z,54.20
2023-11-15T10:25:09.516Z,51.63
2023-11-15T10:26:09.497Z,52.04
2023-11-15T10:27:09.549Z,50.70
2023-11-15T10:28:09.506Z,52.47
2023-11-15T10:29:10.508Z,50.94
2023-11-15T10:30:09.519Z,51.64
2023-11-15T10:31:09.495Z,51.74
2023-11-15T10:32:09.480Z,51.77
2023-11-15T10:33:09.501Z,53.84
2023-11-15T10:34:13.072Z,52.23
2023-11-15T10:35:10.440Z,52.25
2023-11-15T10:36:09.461Z,52.26
2023-11-15T10:37:09.430Z,52.37
2023-11-15T10:38:09.439Z,52.74
2023-11-15T10:39:09.445Z,52.50
2023-11-15T10:40:09.384Z,52.90
2023-11-15T10:41:09.401Z,53.73
2023-11-15T10:42:09.368Z,53.18
2023-11-15T10:43:09.373Z,53.37
2023-11-15T10:44:09.344Z,52.15
2023-11-15T10:45:09.391Z,52.79
2023-11-15T10:46:09.359Z,50.80
2023-11-15T10:47:09.360Z,50.76
2023-11-15T10:48:09.912Z,51.42
2023-11-15T10:49:09.306Z,52.80
2023-11-15T10:50:09.299Z,50.91
2023-11-15T10:51:09.342Z,50.00
2023-11-15T10:52:09.302Z,50.00
2023-11-15T10:53:09.277Z,51.47
2023-11-15T10:54:09.294Z,53.31
2023-11-15T10:55:09.253Z,51.85
2023-11-15T10:56:09.242Z,51.39
2023-11-15T10:57:09.265Z,52.15
2023-11-15T10:58:09.221Z,52.37
2023-11-15T10:59:09.208Z,51.56
2023-11-15T11:00:09.233Z,52.47
2023-11-15T11:01:09.199Z,51.52
2023-11-15T11:02:09.193Z,51.17
2023-11-15T11:03:09.233Z,52.93
2023-11-15T11:04:09.291Z,51.31
2023-11-15T11:05:09.172Z,52.51
2023-11-15T11:06:09.173Z,52.61
2023-11-15T11:07:09.176Z,51.66
2023-11-15T11:08:09.133Z,52.08
2023-11-15T11:09:09.205Z,52.60
2023-11-15T11:10:09.109Z,52.77
2023-11-15T11:11:09.148Z,57.94
2023-11-15T11:12:09.119Z,62.50
2023-11-15T11:13:09.095Z,64.55
2023-11-15T11:14:09.104Z,63.61
2023-11-15T11:15:09.089Z,64.56
2023-11-15T11:16:09.670Z,63.11
2023-11-15T11:17:09.077Z,63.13
2023-11-15T11:18:09.110Z,63.45
2023-11-15T11:19:09.031Z,65.10
2023-11-15T11:20:09.036Z,66.77
2023-11-15T11:21:09.051Z,65.58
2023-11-15T11:22:09.300Z,65.83
2023-11-15T11:23:09.044Z,67.06
2023-11-15T11:24:09.025Z,68.32
2023-11-15T11:25:08.983Z,69.21
2023-11-15T11:26:08.991Z,70.44
2023-11-15T11:27:09.012Z,71.99
2023-11-15T11:28:08.960Z,70.38
2023-11-15T11:29:08.963Z,72.81
2023-11-15T11:30:09.060Z,71.88
2023-11-15T11:31:08.949Z,73.13
2023-11-15T11:32:08.928Z,73.06
2023-11-15T11:33:09.003Z,73.04
2023-11-15T11:34:08.903Z,74.87
2023-11-15T11:35:08.984Z,74.49
2023-11-15T11:36:08.979Z,74.00
2023-11-15T11:37:08.918Z,73.64
2023-11-15T11:38:08.920Z,73.57
2023-11-15T11:39:08.938Z,75.16
2023-11-15T11:40:08.879Z,73.48
2023-11-15T11:41:08.836Z,73.63
2023-11-15T11:42:08.861Z,75.48
2023-11-15T11:43:08.841Z,70.93
2023-11-15T11:44:08.845Z,73.23
2023-11-15T11:45:08.817Z,72.72
2023-11-15T11:46:08.832Z,69.86
2023-11-15T11:47:08.778Z,72.72
2023-11-15T11:48:08.836Z,72.94
2023-11-15T11:49:08.761Z,73.31
2023-11-15T11:50:08.784Z,73.44
2023-11-15T11:51:08.837Z,71.92
2023-11-15T11:52:08.750Z,71.43
2023-11-15T11:53:08.750Z,71.64
2023-11-15T11:54:08.758Z,71.33
2023-11-15T11:55:08.732Z,71.99
2023-11-15T11:56:08.768Z,70.36
2023-11-15T11:57:08.721Z,70.92
2023-11-15T11:58:08.712Z,72.65
2023-11-15T11:59:08.741Z,72.00
2023-11-15T12:00:08.710Z,72.77
2023-11-15T12:01:08.692Z,71.65
2023-11-15T12:02:08.658Z,71.77
2023-11-15T12:03:13.068Z,72.92
2023-11-15T12:04:08.743Z,73.02
2023-11-15T12:05:08.653Z,72.45
2023-11-15T12:06:09.131Z,73.18
2023-11-15T12:07:08.605Z,73.48
2023-11-15T12:08:09.678Z,73.65
2023-11-15T12:09:08.617Z,73.14
2023-11-15T12:10:08.605Z,73.19
2023-11-15T12:11:08.593Z,75.28
2023-11-15T12:12:08.588Z,77.14
2023-11-15T12:13:08.575Z,77.55
2023-11-15T12:14:08.546Z,77.36
2023-11-15T12:15:08.614Z,77.80
2023-11-15T12:16:08.544Z,79.65
2023-11-15T12:17:08.547Z,78.38
2023-11-15T12:18:08.742Z,77.85
2023-11-15T12:19:08.544Z,77.33
2023-11-15T12:20:08.523Z,78.57
2023-11-15T12:21:08.520Z,79.62
2023-11-15T12:22:08.495Z,78.55
2023-11-15T12:23:08.468Z,79.14
2023-11-15T12:24:08.580Z,79.38
2023-11-15T12:25:08.452Z,78.43
2023-11-15T12:26:08.533Z,79.53
2023-11-15T12:27:08.465Z,77.93
2023-11-15T12:28:08.446Z,77.45
2023-11-15T12:29:08.411Z,76.72
2023-11-15T12:30:08.450Z,78.87
2023-11-15T12:31:08.453Z,78.65
2023-11-15T12:32:08.393Z,78.49
2023-11-15T12:33:08.437Z,78.28
2023-11-15T12:34:08.377Z,78.82
2023-11-15T12:35:08.375Z,79.00
2023-11-15T12:36:08.482Z,77.40
2023-11-15T12:37:08.346Z,78.51
2023-11-15T12:38:08.346Z,78.50
2023-11-15T12:39:08.386Z,79.48
2023-11-15T12:40:08.369Z,81.88
2023-11-15T12:41:08.314Z,80.99
2023-11-15T12:42:08.363Z,79.86
2023-11-15T12:43:08.295Z,77.21
2023-11-15T12:44:08.309Z,75.81
2023-11-15T12:45:08.321Z,75.81
2023-11-15T12:46:08.447Z,75.09
2023-11-15T12:47:08.286Z,71.47
2023-11-15T12:48:08.326Z,67.41
2023-11-15T12:49:08.235Z,62.05
2023-11-15T12:50:08.269Z,62.54